sensor_id;sensor_type;location;lat;lon;timestamp;pressure;altitude;pressure_sealevel;temperature;humidity
8320;BME280;4197;42.130;24.746;2023-05-24T00:01:09;99215.69;;;14.76;100.00
8320;BME280;4197;42.130;24.746;2023-05-24T00:03:37;99222.31;;;14.79;100.00
8320;BME280;4197;42.130;24.746;2023-05-24T00:06:06;99221.53;;;14.78;100.00
8320;BME280;4197;42.130;24.746;2023-05-24T00:08:34;99216.88;;;14.71;100.00
8320;BME280;4197;42.130;24.746;2023-05-24T00:11:04;99212.94;;;14.80;100.00
8320;BME280;4197;42.130;24.746;2023-05-24T00:13:33;99202.03;;;14.72;100.00
8320;BME280;4197;42.130;24.746;2023-05-24T00:16:01;99200.88;;;14.66;100.00
8320;BME280;4197;42.130;24.746;2023-05-24T00:18:29;99210.19;;;14.65;100.00
8320;BME280;4197;42.130;24.746;2023-05-24T00:20:57;99209.84;;;14.63;100.00
8320;BME280;4197;42.130;24.746;2023-05-24T00:23:26;99218.00;;;14.60;100.00
8320;BME280;4197;42.130;24.746;2023-05-24T00:25:54;99208.63;;;14.57;100.00
8320;BME280;4197;42.130;24.746;2023-05-24T00:28:24;99218.34;;;14.51;100.00
8320;BME280;4197;42.130;24.746;2023-05-24T00:30:52;99213.66;;;14.51;100.00
8320;BME280;4197;42.130;24.746;2023-05-24T00:33:20;99215.25;;;14.56;100.00
8320;BME280;4197;42.130;24.746;2023-05-24T00:35:49;99214.03;;;14.46;100.00
8320;BME280;4197;42.130;24.746;2023-05-24T00:38:22;99208.16;;;14.34;100.00
8320;BME280;4197;42.130;24.746;2023-05-24T00:40:50;99199.16;;;14.22;100.00
8320;BME280;4197;42.130;24.746;2023-05-24T00:43:18;99210.03;;;14.19;100.00
8320;BME280;4197;42.130;24.746;2023-05-24T00:45:50;99200.69;;;14.16;100.00
8320;BME280;4197;42.130;24.746;2023-05-24T00:48:27;99197.66;;;14.36;100.00
8320;BME280;4197;42.130;24.746;2023-05-24T00:50:55;99198.41;;;14.36;100.00
8320;BME280;4197;42.130;24.746;2023-05-24T00:53:24;99194.50;;;14.37;100.00
8320;BME280;4197;42.130;24.746;2023-05-24T00:55:53;99191.41;;;14.39;100.00
8320;BME280;4197;42.130;24.746;2023-05-24T00:58:22;99180.50;;;14.39;100.00
8320;BME280;4197;42.130;24.746;2023-05-24T01:00:55;99183.19;;;14.35;100.00
8320;BME280;4197;42.130;24.746;2023-05-24T01:03:26;99185.94;;;14.32;100.00
8320;BME280;4197;42.130;24.746;2023-05-24T01:05:55;99186.69;;;14.28;100.00
8320;BME280;4197;42.130;24.746;2023-05-24T01:08:41;99176.56;;;14.25;100.00
8320;BME280;4197;42.130;24.746;2023-05-24T01:11:18;99176.56;;;14.22;100.00
8320;BME280;4197;42.130;24.746;2023-05-24T01:13:56;99173.41;;;14.13;100.00
8320;BME280;4197;42.130;24.746;2023-05-24T01:16:34;99168.72;;;14.10;100.00
8320;BME280;4197;42.130;24.746;2023-05-24T01:19:13;99176.13;;;14.05;100.00
8320;BME280;4197;42.130;24.746;2023-05-24T01:21:58;99177.28;;;14.08;100.00
8320;BME280;4197;42.130;24.746;2023-05-24T01:24:43;99174.16;;;14.02;100.00
8320;BME280;4197;42.130;24.746;2023-05-24T01:27:21;99167.53;;;14.00;100.00
8320;BME280;4197;42.130;24.746;2023-05-24T01:29:50;99163.97;;;13.96;100.00
8320;BME280;4197;42.130;24.746;2023-05-24T01:32:20;99163.56;;;13.90;100.00
8320;BME280;4197;42.130;24.746;2023-05-24T01:34:48;99170.91;;;13.79;100.00
8320;BME280;4197;42.130;24.746;2023-05-24T01:37:16;99173.28;;;13.80;100.00
8320;BME280;4197;42.130;24.746;2023-05-24T01:39:45;99172.91;;;13.86;100.00
8320;BME280;4197;42.130;24.746;2023-05-24T01:42:24;99174.47;;;13.87;100.00
8320;BME280;4197;42.130;24.746;2023-05-24T01:45:03;99164.75;;;13.86;100.00
8320;BME280;4197;42.130;24.746;2023-05-24T01:47:41;99167.06;;;13.83;100.00
8320;BME280;4197;42.130;24.746;2023-05-24T01:50:17;99168.19;;;13.75;100.00
8320;BME280;4197;42.130;24.746;2023-05-24T01:52:49;99164.28;;;13.73;100.00
8320;BME280;4197;42.130;24.746;2023-05-24T01:55:19;99169.72;;;13.69;100.00
8320;BME280;4197;42.130;24.746;2023-05-24T01:57:53;99174.00;;;13.70;100.00
8320;BME280;4197;42.130;24.746;2023-05-24T02:00:25;99182.16;;;13.70;100.00
8320;BME280;4197;42.130;24.746;2023-05-24T02:02:54;99188.31;;;13.60;100.00
8320;BME280;4197;42.130;24.746;2023-05-24T02:05:24;99191.06;;;13.60;100.00
8320;BME280;4197;42.130;24.746;2023-05-24T02:07:52;99192.56;;;13.54;100.00
8320;BME280;4197;42.130;24.746;2023-05-24T02:10:21;99194.09;;;13.48;100.00
8320;BME280;4197;42.130;24.746;2023-05-24T02:12:50;99197.19;;;13.43;100.00
8320;BME280;4197;42.130;24.746;2023-05-24T02:15:19;99204.16;;;13.40;100.00
8320;BME280;4197;42.130;24.746;2023-05-24T02:17:47;99206.13;;;13.43;100.00
8320;BME280;4197;42.130;24.746;2023-05-24T02:20:16;99211.91;;;13.34;100.00
8320;BME280;4197;42.130;24.746;2023-05-24T02:22:44;99214.97;;;13.29;100.00
8320;BME280;4197;42.130;24.746;2023-05-24T02:25:13;99213.72;;;13.20;100.00
8320;BME280;4197;42.130;24.746;2023-05-24T02:27:41;99206.25;;;13.13;100.00
8320;BME280;4197;42.130;24.746;2023-05-24T02:30:14;99209.75;;;13.13;100.00
8320;BME280;4197;42.130;24.746;2023-05-24T02:32:42;99214.41;;;13.13;100.00
8320;BME280;4197;42.130;24.746;2023-05-24T02:35:10;99206.69;;;13.18;100.00
8320;BME280;4197;42.130;24.746;2023-05-24T02:37:39;99218.09;;;13.28;100.00
8320;BME280;4197;42.130;24.746;2023-05-24T02:40:08;99223.16;;;13.33;100.00
8320;BME280;4197;42.130;24.746;2023-05-24T02:42:37;99218.75;;;13.21;100.00
8320;BME280;4197;42.130;24.746;2023-05-24T02:45:06;99228.78;;;13.10;100.00
8320;BME280;4197;42.130;24.746;2023-05-24T02:47:36;99225.22;;;13.02;100.00
8320;BME280;4197;42.130;24.746;2023-05-24T02:50:05;99232.16;;;12.96;100.00
8320;BME280;4197;42.130;24.746;2023-05-24T02:52:34;99234.84;;;12.92;100.00
8320;BME280;4197;42.130;24.746;2023-05-24T02:55:03;99236.38;;;12.90;100.00
8320;BME280;4197;42.130;24.746;2023-05-24T02:57:32;99237.94;;;12.91;100.00
8320;BME280;4197;42.130;24.746;2023-05-24T03:00:00;99230.94;;;12.90;100.00
8320;BME280;4197;42.130;24.746;2023-05-24T03:02:29;99228.31;;;12.97;100.00
8320;BME280;4197;42.130;24.746;2023-05-24T03:05:01;99228.69;;;12.99;100.00
8320;BME280;4197;42.130;24.746;2023-05-24T03:07:29;99233.03;;;13.04;100.00
8320;BME280;4197;42.130;24.746;2023-05-24T03:09:57;99237.38;;;13.12;100.00
8320;BME280;4197;42.130;24.746;2023-05-24T03:12:26;99235.06;;;13.14;100.00
8320;BME280;4197;42.130;24.746;2023-05-24T03:14:54;99233.13;;;13.18;100.00
8320;BME280;4197;42.130;24.746;2023-05-24T03:17:22;99233.25;;;13.29;100.00
8320;BME280;4197;42.130;24.746;2023-05-24T03:19:50;99241.84;;;13.31;100.00
8320;BME280;4197;42.130;24.746;2023-05-24T03:22:20;99236.41;;;13.34;100.00
8320;BME280;4197;42.130;24.746;2023-05-24T03:24:49;99239.31;;;13.56;100.00
8320;BME280;4197;42.130;24.746;2023-05-24T03:27:20;99231.16;;;13.63;100.00
8320;BME280;4197;42.130;24.746;2023-05-24T03:29:49;99232.31;;;13.62;100.00
8320;BME280;4197;42.130;24.746;2023-05-24T03:32:17;99236.66;;;13.67;100.00
8320;BME280;4197;42.130;24.746;2023-05-24T03:34:45;99230.88;;;13.75;100.00
8320;BME280;4197;42.130;24.746;2023-05-24T03:37:14;99234.84;;;13.92;100.00
8320;BME280;4197;42.130;24.746;2023-05-24T03:39:43;99238.06;;;14.16;100.00
8320;BME280;4197;42.130;24.746;2023-05-24T03:42:11;99233.06;;;14.32;100.00
8320;BME280;4197;42.130;24.746;2023-05-24T03:44:40;99225.28;;;14.38;100.00
8320;BME280;4197;42.130;24.746;2023-05-24T03:47:09;99232.75;;;14.48;100.00
8320;BME280;4197;42.130;24.746;2023-05-24T03:49:39;99229.69;;;14.60;100.00
8320;BME280;4197;42.130;24.746;2023-05-24T03:52:07;99232.06;;;14.72;100.00
8320;BME280;4197;42.130;24.746;2023-05-24T03:54:36;99235.22;;;14.89;100.00
8320;BME280;4197;42.130;24.746;2023-05-24T03:57:06;99232.50;;;15.14;100.00
8320;BME280;4197;42.130;24.746;2023-05-24T03:59:34;99242.25;;;15.08;100.00
8320;BME280;4197;42.130;24.746;2023-05-24T04:02:20;99236.78;;;15.15;100.00
8320;BME280;4197;42.130;24.746;2023-05-24T04:04:48;99236.78;;;15.29;100.00
8320;BME280;4197;42.130;24.746;2023-05-24T04:07:17;99238.72;;;15.61;100.00
8320;BME280;4197;42.130;24.746;2023-05-24T04:09:46;99241.06;;;15.91;100.00
8320;BME280;4197;42.130;24.746;2023-05-24T04:12:15;99237.84;;;16.07;100.00
8320;BME280;4197;42.130;24.746;2023-05-24T04:14:44;99249.53;;;16.22;100.00
8320;BME280;4197;42.130;24.746;2023-05-24T04:17:12;99248.78;;;16.21;100.00
8320;BME280;4197;42.130;24.746;2023-05-24T04:19:41;99245.19;;;16.35;100.00
8320;BME280;4197;42.130;24.746;2023-05-24T04:22:09;99249.41;;;16.58;100.00
8320;BME280;4197;42.130;24.746;2023-05-24T04:24:38;99243.44;;;16.77;100.00
8320;BME280;4197;42.130;24.746;2023-05-24T04:27:06;99248.41;;;16.93;100.00
8320;BME280;4197;42.130;24.746;2023-05-24T04:29:38;99250.19;;;17.17;100.00
8320;BME280;4197;42.130;24.746;2023-05-24T04:32:06;99250.47;;;17.34;100.00
8320;BME280;4197;42.130;24.746;2023-05-24T04:34:35;99253.16;;;17.41;100.00
8320;BME280;4197;42.130;24.746;2023-05-24T04:37:08;99247.06;;;17.64;100.00
8320;BME280;4197;42.130;24.746;2023-05-24T04:39:36;99246.97;;;17.78;100.00
8320;BME280;4197;42.130;24.746;2023-05-24T04:42:05;99244.09;;;17.89;100.00
8320;BME280;4197;42.130;24.746;2023-05-24T04:44:34;99250.25;;;18.00;100.00
8320;BME280;4197;42.130;24.746;2023-05-24T04:47:04;99240.16;;;17.94;100.00
8320;BME280;4197;42.130;24.746;2023-05-24T04:49:33;99247.41;;;18.11;100.00
8320;BME280;4197;42.130;24.746;2023-05-24T04:52:01;99240.88;;;17.98;100.00
8320;BME280;4197;42.130;24.746;2023-05-24T04:54:30;99248.28;;;18.01;100.00
8320;BME280;4197;42.130;24.746;2023-05-24T04:56:58;99250.56;;;18.10;100.00
8320;BME280;4197;42.130;24.746;2023-05-24T04:59:27;99257.03;;;18.26;100.00
8320;BME280;4197;42.130;24.746;2023-05-24T05:01:55;99259.91;;;18.46;98.20
8320;BME280;4197;42.130;24.746;2023-05-24T05:04:25;99246.38;;;18.63;96.72
8320;BME280;4197;42.130;24.746;2023-05-24T05:06:53;99257.34;;;18.63;96.77
8320;BME280;4197;42.130;24.746;2023-05-24T05:09:22;99258.69;;;18.82;94.90
8320;BME280;4197;42.130;24.746;2023-05-24T05:11:50;99261.94;;;19.00;93.00
8320;BME280;4197;42.130;24.746;2023-05-24T05:14:19;99268.75;;;19.19;90.41
8320;BME280;4197;42.130;24.746;2023-05-24T05:16:47;99270.34;;;19.16;91.69
8320;BME280;4197;42.130;24.746;2023-05-24T05:19:15;99271.59;;;18.85;93.24
8320;BME280;4197;42.130;24.746;2023-05-24T05:21:45;99265.63;;;18.90;94.32
8320;BME280;4197;42.130;24.746;2023-05-24T05:24:14;99269.03;;;19.25;90.53
8320;BME280;4197;42.130;24.746;2023-05-24T05:26:42;99277.06;;;19.63;86.66
8320;BME280;4197;42.130;24.746;2023-05-24T05:29:11;99270.97;;;19.98;85.52
8320;BME280;4197;42.130;24.746;2023-05-24T05:31:39;99272.72;;;20.09;84.27
8320;BME280;4197;42.130;24.746;2023-05-24T05:34:07;99273.28;;;20.20;84.01
8320;BME280;4197;42.130;24.746;2023-05-24T05:36:36;99279.31;;;20.15;83.11
8320;BME280;4197;42.130;24.746;2023-05-24T05:39:08;99290.13;;;19.82;85.89
8320;BME280;4197;42.130;24.746;2023-05-24T05:41:37;99277.56;;;19.57;88.02
8320;BME280;4197;42.130;24.746;2023-05-24T05:44:06;99280.41;;;19.97;85.50
8320;BME280;4197;42.130;24.746;2023-05-24T05:46:34;99276.19;;;20.13;84.01
8320;BME280;4197;42.130;24.746;2023-05-24T05:49:02;99275.63;;;20.41;82.42
8320;BME280;4197;42.130;24.746;2023-05-24T05:51:30;99279.94;;;20.62;78.88
8320;BME280;4197;42.130;24.746;2023-05-24T05:53:59;99272.31;;;20.86;78.70
8320;BME280;4197;42.130;24.746;2023-05-24T05:56:28;99273.91;;;21.04;78.48
8320;BME280;4197;42.130;24.746;2023-05-24T05:58:56;99277.53;;;21.17;77.63
8320;BME280;4197;42.130;24.746;2023-05-24T06:01:25;99283.78;;;21.37;76.71
8320;BME280;4197;42.130;24.746;2023-05-24T06:03:53;99283.78;;;21.37;75.27
8320;BME280;4197;42.130;24.746;2023-05-24T06:06:21;99294.06;;;21.37;76.43
8320;BME280;4197;42.130;24.746;2023-05-24T06:08:49;99293.59;;;21.38;74.31
8320;BME280;4197;42.130;24.746;2023-05-24T06:11:18;99306.53;;;21.42;74.09
8320;BME280;4197;42.130;24.746;2023-05-24T06:13:48;99296.53;;;21.31;75.01
8320;BME280;4197;42.130;24.746;2023-05-24T06:16:17;99298.47;;;21.31;76.67
8320;BME280;4197;42.130;24.746;2023-05-24T06:18:45;99299.47;;;21.41;75.98
8320;BME280;4197;42.130;24.746;2023-05-24T06:21:30;99298.69;;;21.40;77.12
8320;BME280;4197;42.130;24.746;2023-05-24T06:23:58;99300.84;;;21.49;76.35
8320;BME280;4197;42.130;24.746;2023-05-24T06:26:28;99298.19;;;21.45;77.29
8320;BME280;4197;42.130;24.746;2023-05-24T06:28:58;99304.25;;;21.36;79.94
8320;BME280;4197;42.130;24.746;2023-05-24T06:31:27;99310.09;;;21.22;80.75
8320;BME280;4197;42.130;24.746;2023-05-24T06:33:55;99313.25;;;20.88;83.52
8320;BME280;4197;42.130;24.746;2023-05-24T06:36:26;99306.19;;;20.87;84.21
8320;BME280;4197;42.130;24.746;2023-05-24T06:38:55;99304.84;;;20.95;82.63
8320;BME280;4197;42.130;24.746;2023-05-24T06:41:23;99303.00;;;20.88;83.50
8320;BME280;4197;42.130;24.746;2023-05-24T06:43:52;99304.78;;;20.79;84.97
8320;BME280;4197;42.130;24.746;2023-05-24T06:46:23;99312.06;;;20.69;86.11
8320;BME280;4197;42.130;24.746;2023-05-24T06:48:51;99310.16;;;20.66;84.48
8320;BME280;4197;42.130;24.746;2023-05-24T06:51:25;99310.38;;;20.75;85.07
8320;BME280;4197;42.130;24.746;2023-05-24T06:53:55;99305.28;;;20.74;85.27
8320;BME280;4197;42.130;24.746;2023-05-24T06:56:23;99300.06;;;20.79;84.09
8320;BME280;4197;42.130;24.746;2023-05-24T06:58:52;99295.53;;;20.69;83.48
8320;BME280;4197;42.130;24.746;2023-05-24T07:01:21;99298.22;;;20.72;84.04
8320;BME280;4197;42.130;24.746;2023-05-24T07:03:51;99305.63;;;20.76;84.29
8320;BME280;4197;42.130;24.746;2023-05-24T07:06:19;99298.47;;;20.78;84.57
8320;BME280;4197;42.130;24.746;2023-05-24T07:08:47;99289.75;;;21.00;82.26
8320;BME280;4197;42.130;24.746;2023-05-24T07:11:15;99291.00;;;21.15;81.35
8320;BME280;4197;42.130;24.746;2023-05-24T07:13:44;99288.25;;;21.31;80.50
8320;BME280;4197;42.130;24.746;2023-05-24T07:16:12;99284.66;;;21.51;79.19
8320;BME280;4197;42.130;24.746;2023-05-24T07:18:40;99284.47;;;21.58;78.49
8320;BME280;4197;42.130;24.746;2023-05-24T07:21:10;99289.53;;;21.76;78.80
8320;BME280;4197;42.130;24.746;2023-05-24T07:23:38;99282.53;;;21.88;78.11
8320;BME280;4197;42.130;24.746;2023-05-24T07:26:07;99286.41;;;21.90;77.46
8320;BME280;4197;42.130;24.746;2023-05-24T07:28:35;99281.06;;;21.67;79.47
8320;BME280;4197;42.130;24.746;2023-05-24T07:31:07;99289.38;;;21.34;81.97
8320;BME280;4197;42.130;24.746;2023-05-24T07:33:36;99286.72;;;21.47;79.88
8320;BME280;4197;42.130;24.746;2023-05-24T07:36:05;99296.72;;;21.57;80.59
8320;BME280;4197;42.130;24.746;2023-05-24T07:38:34;99287.97;;;21.75;79.20
8320;BME280;4197;42.130;24.746;2023-05-24T07:41:03;99285.00;;;21.98;76.48
8320;BME280;4197;42.130;24.746;2023-05-24T07:43:32;99287.91;;;22.08;77.12
8320;BME280;4197;42.130;24.746;2023-05-24T07:46:00;99286.22;;;22.26;75.60
8320;BME280;4197;42.130;24.746;2023-05-24T07:48:28;99283.31;;;22.17;74.78
8320;BME280;4197;42.130;24.746;2023-05-24T07:50:56;99287.53;;;22.22;74.84
8320;BME280;4197;42.130;24.746;2023-05-24T07:53:25;99283.13;;;22.24;75.56
8320;BME280;4197;42.130;24.746;2023-05-24T07:55:54;99284.81;;;22.35;74.22
8320;BME280;4197;42.130;24.746;2023-05-24T07:58:22;99275.97;;;22.27;75.33
8320;BME280;4197;42.130;24.746;2023-05-24T08:00:51;99286.50;;;22.45;75.98
8320;BME280;4197;42.130;24.746;2023-05-24T08:03:19;99290.84;;;22.71;73.60
8320;BME280;4197;42.130;24.746;2023-05-24T08:05:48;99289.53;;;22.63;71.81
8320;BME280;4197;42.130;24.746;2023-05-24T08:08:16;99290.47;;;22.44;71.30
8320;BME280;4197;42.130;24.746;2023-05-24T08:10:44;99283.34;;;22.59;71.09
8320;BME280;4197;42.130;24.746;2023-05-24T08:13:13;99276.41;;;22.93;68.31
8320;BME280;4197;42.130;24.746;2023-05-24T08:15:42;99280.19;;;22.99;66.01
8320;BME280;4197;42.130;24.746;2023-05-24T08:18:11;99289.25;;;23.12;65.03
8320;BME280;4197;42.130;24.746;2023-05-24T08:20:39;99276.88;;;23.17;61.92
8320;BME280;4197;42.130;24.746;2023-05-24T08:23:07;99282.38;;;23.30;63.43
8320;BME280;4197;42.130;24.746;2023-05-24T08:25:36;99281.38;;;23.36;63.76
8320;BME280;4197;42.130;24.746;2023-05-24T08:28:04;99282.56;;;23.48;61.58
8320;BME280;4197;42.130;24.746;2023-05-24T08:30:34;99274.34;;;23.57;59.73
8320;BME280;4197;42.130;24.746;2023-05-24T08:33:02;99275.25;;;23.54;58.76
8320;BME280;4197;42.130;24.746;2023-05-24T08:35:30;99284.44;;;23.64;59.49
8320;BME280;4197;42.130;24.746;2023-05-24T08:37:58;99285.50;;;23.79;57.65
8320;BME280;4197;42.130;24.746;2023-05-24T08:40:26;99283.06;;;23.81;56.00
8320;BME280;4197;42.130;24.746;2023-05-24T08:42:58;99277.94;;;23.93;56.19
8320;BME280;4197;42.130;24.746;2023-05-24T08:45:29;99281.81;;;23.95;57.07
8320;BME280;4197;42.130;24.746;2023-05-24T08:47:59;99284.13;;;24.19;55.90
8320;BME280;4197;42.130;24.746;2023-05-24T08:50:29;99285.94;;;24.35;55.06
8320;BME280;4197;42.130;24.746;2023-05-24T08:52:58;99284.81;;;24.45;56.64
8320;BME280;4197;42.130;24.746;2023-05-24T08:55:28;99288.72;;;24.57;53.38
8320;BME280;4197;42.130;24.746;2023-05-24T08:57:59;99280.91;;;24.64;54.14
8320;BME280;4197;42.130;24.746;2023-05-24T09:00:27;99274.41;;;24.89;51.61
8320;BME280;4197;42.130;24.746;2023-05-24T09:02:56;99271.66;;;24.99;53.59
8320;BME280;4197;42.130;24.746;2023-05-24T09:05:28;99276.88;;;25.28;51.50
8320;BME280;4197;42.130;24.746;2023-05-24T09:07:58;99273.03;;;25.44;51.13
8320;BME280;4197;42.130;24.746;2023-05-24T09:10:28;99276.44;;;25.39;52.51
8320;BME280;4197;42.130;24.746;2023-05-24T09:13:17;99275.53;;;25.51;53.34
8320;BME280;4197;42.130;24.746;2023-05-24T09:15:46;99272.47;;;25.58;50.85
8320;BME280;4197;42.130;24.746;2023-05-24T09:18:14;99276.47;;;25.57;48.80
8320;BME280;4197;42.130;24.746;2023-05-24T09:20:43;99281.09;;;25.60;47.35
8320;BME280;4197;42.130;24.746;2023-05-24T09:23:13;99272.59;;;25.45;48.85
8320;BME280;4197;42.130;24.746;2023-05-24T09:25:42;99277.72;;;25.56;47.94
8320;BME280;4197;42.130;24.746;2023-05-24T09:28:12;99274.91;;;25.47;46.66
8320;BME280;4197;42.130;24.746;2023-05-24T09:30:42;99270.31;;;25.53;46.37
8320;BME280;4197;42.130;24.746;2023-05-24T09:33:11;99270.59;;;25.55;46.59
8320;BME280;4197;42.130;24.746;2023-05-24T09:35:41;99268.13;;;25.57;47.95
8320;BME280;4197;42.130;24.746;2023-05-24T09:38:17;99268.13;;;25.57;47.51
8320;BME280;4197;42.130;24.746;2023-05-24T09:40:45;99264.88;;;25.49;47.23
8320;BME280;4197;42.130;24.746;2023-05-24T09:43:13;99268.91;;;25.48;47.48
8320;BME280;4197;42.130;24.746;2023-05-24T09:45:42;99259.66;;;25.51;46.95
8320;BME280;4197;42.130;24.746;2023-05-24T09:48:13;99258.28;;;25.56;46.27
8320;BME280;4197;42.130;24.746;2023-05-24T09:50:43;99264.75;;;25.62;46.81
8320;BME280;4197;42.130;24.746;2023-05-24T09:53:16;99257.03;;;25.57;47.58
8320;BME280;4197;42.130;24.746;2023-05-24T09:55:45;99264.47;;;25.69;46.45
8320;BME280;4197;42.130;24.746;2023-05-24T09:58:15;99255.38;;;25.78;48.22
8320;BME280;4197;42.130;24.746;2023-05-24T10:00:44;99259.25;;;26.08;48.37
8320;BME280;4197;42.130;24.746;2023-05-24T10:03:13;99254.91;;;26.07;47.48
8320;BME280;4197;42.130;24.746;2023-05-24T10:05:43;99253.03;;;26.22;47.69
8320;BME280;4197;42.130;24.746;2023-05-24T10:08:12;99259.50;;;26.47;47.04
8320;BME280;4197;42.130;24.746;2023-05-24T10:10:43;99258.25;;;26.48;46.09
8320;BME280;4197;42.130;24.746;2023-05-24T10:13:12;99260.41;;;26.53;46.05
8320;BME280;4197;42.130;24.746;2023-05-24T10:15:43;99257.88;;;26.74;45.00
8320;BME280;4197;42.130;24.746;2023-05-24T10:18:11;99256.34;;;26.73;44.49
8320;BME280;4197;42.130;24.746;2023-05-24T10:20:40;99246.88;;;26.79;45.08
8320;BME280;4197;42.130;24.746;2023-05-24T10:23:09;99244.47;;;26.96;44.99
8320;BME280;4197;42.130;24.746;2023-05-24T10:25:49;99248.53;;;26.95;44.62
8320;BME280;4197;42.130;24.746;2023-05-24T10:28:21;99235.63;;;27.07;43.88
8320;BME280;4197;42.130;24.746;2023-05-24T10:31:00;99237.72;;;27.21;44.55
8320;BME280;4197;42.130;24.746;2023-05-24T10:33:29;99239.72;;;27.30;44.10
8320;BME280;4197;42.130;24.746;2023-05-24T10:35:59;99232.88;;;27.31;42.43
8320;BME280;4197;42.130;24.746;2023-05-24T10:38:28;99235.78;;;27.36;43.25
8320;BME280;4197;42.130;24.746;2023-05-24T10:40:59;99232.06;;;27.40;44.04
8320;BME280;4197;42.130;24.746;2023-05-24T10:43:28;99228.81;;;27.41;43.14
8320;BME280;4197;42.130;24.746;2023-05-24T10:45:56;99225.31;;;27.55;42.86
8320;BME280;4197;42.130;24.746;2023-05-24T10:48:31;99222.84;;;27.72;42.90
8320;BME280;4197;42.130;24.746;2023-05-24T10:51:32;99225.66;;;27.48;40.65
8320;BME280;4197;42.130;24.746;2023-05-24T10:54:15;99215.44;;;26.97;43.49
8320;BME280;4197;42.130;24.746;2023-05-24T10:56:46;99207.78;;;27.07;41.62
8320;BME280;4197;42.130;24.746;2023-05-24T10:59:29;99211.59;;;27.19;43.38
8320;BME280;4197;42.130;24.746;2023-05-24T11:02:00;99208.38;;;27.44;41.10
8320;BME280;4197;42.130;24.746;2023-05-24T11:04:31;99199.59;;;27.36;40.59
8320;BME280;4197;42.130;24.746;2023-05-24T11:07:01;99201.19;;;27.52;39.73
8320;BME280;4197;42.130;24.746;2023-05-24T11:09:30;99200.28;;;27.46;40.39
8320;BME280;4197;42.130;24.746;2023-05-24T11:12:02;99203.47;;;27.54;39.11
8320;BME280;4197;42.130;24.746;2023-05-24T11:14:35;99201.41;;;27.64;39.40
8320;BME280;4197;42.130;24.746;2023-05-24T11:17:06;99210.22;;;27.86;38.65
8320;BME280;4197;42.130;24.746;2023-05-24T11:19:37;99203.53;;;27.69;38.42
8320;BME280;4197;42.130;24.746;2023-05-24T11:22:06;99194.56;;;27.89;37.47
8320;BME280;4197;42.130;24.746;2023-05-24T11:24:36;99198.13;;;28.04;38.67
8320;BME280;4197;42.130;24.746;2023-05-24T11:27:06;99201.00;;;28.10;36.45
8320;BME280;4197;42.130;24.746;2023-05-24T11:29:39;99200.31;;;27.85;34.54
8320;BME280;4197;42.130;24.746;2023-05-24T11:32:08;99211.69;;;27.57;35.03
8320;BME280;4197;42.130;24.746;2023-05-24T11:34:37;99196.81;;;27.36;34.54
8320;BME280;4197;42.130;24.746;2023-05-24T11:37:06;99191.09;;;27.07;35.17
8320;BME280;4197;42.130;24.746;2023-05-24T11:39:36;99190.94;;;27.10;33.83
8320;BME280;4197;42.130;24.746;2023-05-24T11:42:07;99198.00;;;27.21;34.58
8320;BME280;4197;42.130;24.746;2023-05-24T11:44:35;99190.78;;;27.38;35.18
8320;BME280;4197;42.130;24.746;2023-05-24T11:47:07;99184.84;;;27.45;34.44
8320;BME280;4197;42.130;24.746;2023-05-24T11:49:35;99193.06;;;27.64;34.53
8320;BME280;4197;42.130;24.746;2023-05-24T11:52:04;99188.66;;;27.72;34.33
8320;BME280;4197;42.130;24.746;2023-05-24T11:54:33;99192.44;;;27.59;37.74
8320;BME280;4197;42.130;24.746;2023-05-24T11:57:04;99182.41;;;27.77;39.75
8320;BME280;4197;42.130;24.746;2023-05-24T11:59:33;99182.69;;;27.79;39.57
8320;BME280;4197;42.130;24.746;2023-05-24T12:02:05;99176.47;;;27.45;41.69
8320;BME280;4197;42.130;24.746;2023-05-24T12:04:34;99177.91;;;27.79;41.81
8320;BME280;4197;42.130;24.746;2023-05-24T12:07:03;99170.25;;;28.19;40.38
8320;BME280;4197;42.130;24.746;2023-05-24T12:09:31;99166.88;;;28.44;40.25
8320;BME280;4197;42.130;24.746;2023-05-24T12:12:00;99157.06;;;28.49;39.67
8320;BME280;4197;42.130;24.746;2023-05-24T12:14:30;99150.84;;;28.24;39.59
8320;BME280;4197;42.130;24.746;2023-05-24T12:17:02;99147.25;;;28.39;40.32
8320;BME280;4197;42.130;24.746;2023-05-24T12:19:31;99146.94;;;28.52;39.85
8320;BME280;4197;42.130;24.746;2023-05-24T12:22:03;99135.16;;;28.77;39.22
8320;BME280;4197;42.130;24.746;2023-05-24T12:24:33;99138.38;;;28.90;38.33
8320;BME280;4197;42.130;24.746;2023-05-24T12:27:03;99145.41;;;28.86;38.00
8320;BME280;4197;42.130;24.746;2023-05-24T12:29:35;99147.00;;;28.72;37.82
8320;BME280;4197;42.130;24.746;2023-05-24T12:32:08;99134.88;;;28.75;36.92
8320;BME280;4197;42.130;24.746;2023-05-24T12:34:41;99135.50;;;28.85;37.94
8320;BME280;4197;42.130;24.746;2023-05-24T12:37:10;99134.19;;;29.01;36.19
8320;BME280;4197;42.130;24.746;2023-05-24T12:39:39;99129.84;;;28.79;37.79
8320;BME280;4197;42.130;24.746;2023-05-24T12:42:10;99136.31;;;28.71;37.31
8320;BME280;4197;42.130;24.746;2023-05-24T12:44:39;99136.06;;;28.89;37.87
8320;BME280;4197;42.130;24.746;2023-05-24T12:47:09;99134.09;;;29.10;36.40
8320;BME280;4197;42.130;24.746;2023-05-24T12:49:39;99145.97;;;29.05;35.97
8320;BME280;4197;42.130;24.746;2023-05-24T12:52:07;99135.25;;;28.83;36.38
8320;BME280;4197;42.130;24.746;2023-05-24T12:54:35;99138.56;;;28.66;36.92
8320;BME280;4197;42.130;24.746;2023-05-24T12:57:04;99138.94;;;28.59;37.03
8320;BME280;4197;42.130;24.746;2023-05-24T12:59:33;99137.22;;;28.62;38.00
8320;BME280;4197;42.130;24.746;2023-05-24T13:02:01;99137.38;;;28.73;37.64
8320;BME280;4197;42.130;24.746;2023-05-24T13:04:31;99140.06;;;28.82;35.30
8320;BME280;4197;42.130;24.746;2023-05-24T13:07:02;99130.69;;;28.85;36.58
8320;BME280;4197;42.130;24.746;2023-05-24T13:09:30;99136.53;;;28.67;35.35
8320;BME280;4197;42.130;24.746;2023-05-24T13:12:00;99125.81;;;28.45;35.48
8320;BME280;4197;42.130;24.746;2023-05-24T13:14:28;99129.47;;;28.36;35.45
8320;BME280;4197;42.130;24.746;2023-05-24T13:16:57;99135.34;;;28.23;35.23
8320;BME280;4197;42.130;24.746;2023-05-24T13:19:25;99122.69;;;28.08;35.27
8320;BME280;4197;42.130;24.746;2023-05-24T13:21:56;99123.22;;;27.52;36.58